sensor_id;sensor_type;location;lat;lon;timestamp;P1;durP1;ratioP1;P2;durP2;ratioP2
82409;SDS011;72049;51.766;6.846;2023-10-08T00:01:34;7.32;;;3.30;;
82409;SDS011;72049;51.766;6.846;2023-10-08T00:03:59;8.50;;;3.83;;
82409;SDS011;72049;51.766;6.846;2023-10-08T00:06:29;9.52;;;4.85;;
82409;SDS011;72049;51.766;6.846;2023-10-08T00:08:55;8.10;;;3.95;;
82409;SDS011;72049;51.766;6.846;2023-10-08T00:11:25;8.48;;;3.55;;
82409;SDS011;72049;51.766;6.846;2023-10-08T00:13:51;7.20;;;3.40;;
82409;SDS011;72049;51.766;6.846;2023-10-08T00:16:21;12.55;;;4.00;;
82409;SDS011;72049;51.766;6.846;2023-10-08T00:18:47;8.05;;;3.72;;
82409;SDS011;72049;51.766;6.846;2023-10-08T00:21:16;12.60;;;3.90;;
82409;SDS011;72049;51.766;6.846;2023-10-08T00:23:44;10.45;;;3.85;;
82409;SDS011;72049;51.766;6.846;2023-10-08T00:26:25;10.20;;;3.58;;
82409;SDS011;72049;51.766;6.846;2023-10-08T00:29:00;12.45;;;4.32;;
82409;SDS011;72049;51.766;6.846;2023-10-08T00:31:31;8.68;;;3.88;;
82409;SDS011;72049;51.766;6.846;2023-10-08T00:34:02;8.77;;;4.05;;
82409;SDS011;72049;51.766;6.846;2023-10-08T00:36:30;8.55;;;3.78;;
82409;SDS011;72049;51.766;6.846;2023-10-08T00:38:55;14.13;;;3.97;;
82409;SDS011;72049;51.766;6.846;2023-10-08T00:41:25;7.05;;;3.67;;
82409;SDS011;72049;51.766;6.846;2023-10-08T00:43:53;8.43;;;3.30;;
82409;SDS011;72049;51.766;6.846;2023-10-08T00:46:21;8.82;;;3.78;;
82409;SDS011;72049;51.766;6.846;2023-10-08T00:48:52;11.10;;;3.85;;
82409;SDS011;72049;51.766;6.846;2023-10-08T00:51:26;11.05;;;4.13;;
82409;SDS011;72049;51.766;6.846;2023-10-08T00:53:56;9.25;;;3.90;;
82409;SDS011;72049;51.766;6.846;2023-10-08T00:56:27;9.27;;;4.03;;
82409;SDS011;72049;51.766;6.846;2023-10-08T00:59:12;7.40;;;3.65;;
82409;SDS011;72049;51.766;6.846;2023-10-08T01:01:43;7.72;;;3.55;;
82409;SDS011;72049;51.766;6.846;2023-10-08T01:04:18;9.15;;;4.05;;
82409;SDS011;72049;51.766;6.846;2023-10-08T01:06:46;9.07;;;4.07;;
82409;SDS011;72049;51.766;6.846;2023-10-08T01:09:14;9.75;;;4.00;;
82409;SDS011;72049;51.766;6.846;2023-10-08T01:11:43;10.18;;;3.60;;
82409;SDS011;72049;51.766;6.846;2023-10-08T01:14:15;8.02;;;3.33;;
82409;SDS011;72049;51.766;6.846;2023-10-08T01:16:40;9.57;;;3.88;;
82409;SDS011;72049;51.766;6.846;2023-10-08T01:19:10;9.07;;;3.53;;
82409;SDS011;72049;51.766;6.846;2023-10-08T01:21:39;7.78;;;3.67;;
82409;SDS011;72049;51.766;6.846;2023-10-08T01:24:05;8.65;;;3.70;;
82409;SDS011;72049;51.766;6.846;2023-10-08T01:26:33;7.97;;;3.20;;
82409;SDS011;72049;51.766;6.846;2023-10-08T01:28:58;10.70;;;3.97;;
82409;SDS011;72049;51.766;6.846;2023-10-08T01:31:32;9.77;;;3.47;;
82409;SDS011;72049;51.766;6.846;2023-10-08T01:33:58;9.85;;;4.40;;
82409;SDS011;72049;51.766;6.846;2023-10-08T01:36:26;8.38;;;3.55;;
82409;SDS011;72049;51.766;6.846;2023-10-08T01:38:51;11.15;;;4.07;;
82409;SDS011;72049;51.766;6.846;2023-10-08T01:41:20;10.07;;;4.30;;
82409;SDS011;72049;51.766;6.846;2023-10-08T01:43:46;9.45;;;4.18;;
82409;SDS011;72049;51.766;6.846;2023-10-08T01:46:11;8.55;;;4.53;;
82409;SDS011;72049;51.766;6.846;2023-10-08T01:48:40;11.13;;;4.35;;
82409;SDS011;72049;51.766;6.846;2023-10-08T01:51:08;7.68;;;3.42;;
82409;SDS011;72049;51.766;6.846;2023-10-08T01:53:53;9.82;;;4.20;;
82409;SDS011;72049;51.766;6.846;2023-10-08T01:56:19;11.38;;;3.88;;
82409;SDS011;72049;51.766;6.846;2023-10-08T01:58:44;9.98;;;3.60;;
82409;SDS011;72049;51.766;6.846;2023-10-08T02:01:11;9.98;;;4.18;;
82409;SDS011;72049;51.766;6.846;2023-10-08T02:03:38;9.55;;;3.92;;
82409;SDS011;72049;51.766;6.846;2023-10-08T02:06:03;8.60;;;3.60;;
82409;SDS011;72049;51.766;6.846;2023-10-08T02:08:31;10.55;;;4.03;;
82409;SDS011;72049;51.766;6.846;2023-10-08T02:10:57;9.23;;;3.58;;
82409;SDS011;72049;51.766;6.846;2023-10-08T02:13:22;10.27;;;3.95;;
82409;SDS011;72049;51.766;6.846;2023-10-08T02:15:50;10.23;;;3.80;;
82409;SDS011;72049;51.766;6.846;2023-10-08T02:18:19;10.80;;;4.40;;
82409;SDS011;72049;51.766;6.846;2023-10-08T02:20:45;11.02;;;4.10;;
82409;SDS011;72049;51.766;6.846;2023-10-08T02:23:18;8.85;;;4.25;;
82409;SDS011;72049;51.766;6.846;2023-10-08T02:25:44;10.40;;;4.07;;
82409;SDS011;72049;51.766;6.846;2023-10-08T02:28:09;8.70;;;3.70;;
82409;SDS011;72049;51.766;6.846;2023-10-08T02:30:37;9.35;;;4.20;;
82409;SDS011;72049;51.766;6.846;2023-10-08T02:33:07;12.10;;;3.97;;
82409;SDS011;72049;51.766;6.846;2023-10-08T02:35:42;12.13;;;5.05;;
82409;SDS011;72049;51.766;6.846;2023-10-08T02:38:11;11.43;;;4.93;;
82409;SDS011;72049;51.766;6.846;2023-10-08T02:40:43;9.10;;;4.38;;
82409;SDS011;72049;51.766;6.846;2023-10-08T02:43:14;10.15;;;4.13;;
82409;SDS011;72049;51.766;6.846;2023-10-08T02:45:40;7.43;;;3.47;;
82409;SDS011;72049;51.766;6.846;2023-10-08T02:48:07;8.50;;;3.80;;
82409;SDS011;72049;51.766;6.846;2023-10-08T02:53:02;9.43;;;4.00;;
82409;SDS011;72049;51.766;6.846;2023-10-08T02:55:36;12.07;;;4.95;;
82409;SDS011;72049;51.766;6.846;2023-10-08T02:58:02;10.68;;;3.97;;
82409;SDS011;72049;51.766;6.846;2023-10-08T03:00:30;9.73;;;4.57;;
82409;SDS011;72049;51.766;6.846;2023-10-08T03:02:56;11.60;;;4.45;;
82409;SDS011;72049;51.766;6.846;2023-10-08T03:05:22;12.00;;;4.10;;
82409;SDS011;72049;51.766;6.846;2023-10-08T03:07:47;9.27;;;3.75;;
82409;SDS011;72049;51.766;6.846;2023-10-08T03:10:16;10.13;;;4.05;;
82409;SDS011;72049;51.766;6.846;2023-10-08T03:12:43;10.23;;;3.83;;
82409;SDS011;72049;51.766;6.846;2023-10-08T03:15:12;11.90;;;4.70;;
82409;SDS011;72049;51.766;6.846;2023-10-08T03:17:39;12.02;;;3.55;;
82409;SDS011;72049;51.766;6.846;2023-10-08T03:22:54;13.30;;;4.63;;
82409;SDS011;72049;51.766;6.846;2023-10-08T03:25:22;11.40;;;3.90;;
82409;SDS011;72049;51.766;6.846;2023-10-08T03:27:49;9.50;;;3.80;;
82409;SDS011;72049;51.766;6.846;2023-10-08T03:30:15;9.07;;;3.80;;
82409;SDS011;72049;51.766;6.846;2023-10-08T03:32:42;11.15;;;4.13;;
82409;SDS011;72049;51.766;6.846;2023-10-08T03:35:09;8.30;;;3.40;;
82409;SDS011;72049;51.766;6.846;2023-10-08T03:37:35;11.73;;;4.63;;
82409;SDS011;72049;51.766;6.846;2023-10-08T03:40:06;10.57;;;4.38;;
82409;SDS011;72049;51.766;6.846;2023-10-08T03:42:48;7.20;;;3.60;;
82409;SDS011;72049;51.766;6.846;2023-10-08T03:45:14;9.85;;;4.28;;
82409;SDS011;72049;51.766;6.846;2023-10-08T03:47:47;9.18;;;3.70;;
82409;SDS011;72049;51.766;6.846;2023-10-08T03:50:21;10.32;;;4.38;;
82409;SDS011;72049;51.766;6.846;2023-10-08T03:52:57;9.88;;;4.22;;
82409;SDS011;72049;51.766;6.846;2023-10-08T03:55:23;9.60;;;4.50;;
82409;SDS011;72049;51.766;6.846;2023-10-08T03:57:52;8.93;;;3.80;;
82409;SDS011;72049;51.766;6.846;2023-10-08T04:00:22;12.02;;;3.95;;
82409;SDS011;72049;51.766;6.846;2023-10-08T04:02:54;10.80;;;4.00;;
82409;SDS011;72049;51.766;6.846;2023-10-08T04:05:21;11.40;;;4.40;;
82409;SDS011;72049;51.766;6.846;2023-10-08T04:07:48;10.68;;;4.47;;
82409;SDS011;72049;51.766;6.846;2023-10-08T04:10:32;9.13;;;4.28;;
82409;SDS011;72049;51.766;6.846;2023-10-08T04:13:14;11.88;;;4.53;;
82409;SDS011;72049;51.766;6.846;2023-10-08T04:15:41;11.00;;;3.97;;
82409;SDS011;72049;51.766;6.846;2023-10-08T04:18:08;9.32;;;3.88;;
82409;SDS011;72049;51.766;6.846;2023-10-08T04:20:33;10.95;;;4.13;;
82409;SDS011;72049;51.766;6.846;2023-10-08T04:23:07;9.25;;;3.92;;
82409;SDS011;72049;51.766;6.846;2023-10-08T04:25:39;11.75;;;3.95;;
82409;SDS011;72049;51.766;6.846;2023-10-08T04:28:04;9.60;;;4.47;;
82409;SDS011;72049;51.766;6.846;2023-10-08T04:30:35;10.40;;;3.47;;
82409;SDS011;72049;51.766;6.846;2023-10-08T04:33:01;8.95;;;4.05;;
82409;SDS011;72049;51.766;6.846;2023-10-08T04:35:43;10.27;;;3.85;;
82409;SDS011;72049;51.766;6.846;2023-10-08T04:38:24;7.43;;;4.05;;
82409;SDS011;72049;51.766;6.846;2023-10-08T04:41:02;8.65;;;3.50;;
82409;SDS011;72049;51.766;6.846;2023-10-08T04:43:33;10.75;;;4.28;;
82409;SDS011;72049;51.766;6.846;2023-10-08T04:46:05;11.02;;;4.00;;
82409;SDS011;72049;51.766;6.846;2023-10-08T04:48:44;7.40;;;3.60;;
82409;SDS011;72049;51.766;6.846;2023-10-08T04:51:09;9.07;;;4.40;;
82409;SDS011;72049;51.766;6.846;2023-10-08T04:53:37;8.82;;;4.30;;
82409;SDS011;72049;51.766;6.846;2023-10-08T04:56:09;8.35;;;4.25;;
82409;SDS011;72049;51.766;6.846;2023-10-08T04:58:41;7.78;;;3.53;;
82409;SDS011;72049;51.766;6.846;2023-10-08T05:01:07;11.70;;;3.85;;
82409;SDS011;72049;51.766;6.846;2023-10-08T05:03:50;12.13;;;4.57;;
82409;SDS011;72049;51.766;6.846;2023-10-08T05:06:25;10.02;;;4.05;;
82409;SDS011;72049;51.766;6.846;2023-10-08T05:09:13;10.15;;;3.75;;
82409;SDS011;72049;51.766;6.846;2023-10-08T05:11:44;11.88;;;4.05;;
82409;SDS011;72049;51.766;6.846;2023-10-08T05:14:30;11.50;;;4.43;;
82409;SDS011;72049;51.766;6.846;2023-10-08T05:16:55;10.73;;;4.77;;
82409;SDS011;72049;51.766;6.846;2023-10-08T05:19:37;10.52;;;4.68;;
82409;SDS011;72049;51.766;6.846;2023-10-08T05:22:13;12.35;;;3.80;;
82409;SDS011;72049;51.766;6.846;2023-10-08T05:24:55;12.85;;;4.15;;
82409;SDS011;72049;51.766;6.846;2023-10-08T05:27:36;9.23;;;4.47;;
82409;SDS011;72049;51.766;6.846;2023-10-08T05:30:06;10.98;;;4.00;;
82409;SDS011;72049;51.766;6.846;2023-10-08T05:32:42;10.90;;;4.57;;
82409;SDS011;72049;51.766;6.846;2023-10-08T05:35:25;10.68;;;4.07;;
82409;SDS011;72049;51.766;6.846;2023-10-08T05:38:06;10.20;;;4.25;;
82409;SDS011;72049;51.766;6.846;2023-10-08T05:40:47;11.10;;;5.35;;
82409;SDS011;72049;51.766;6.846;2023-10-08T05:43:26;9.85;;;4.22;;
82409;SDS011;72049;51.766;6.846;2023-10-08T05:46:10;14.73;;;4.78;;
82409;SDS011;72049;51.766;6.846;2023-10-08T05:48:48;9.65;;;3.42;;
82409;SDS011;72049;51.766;6.846;2023-10-08T05:51:48;4.60;;;2.65;;
82409;SDS011;72049;51.766;6.846;2023-10-08T05:56:56;4.97;;;2.33;;
82409;SDS011;72049;51.766;6.846;2023-10-08T05:59:37;5.47;;;1.80;;
82409;SDS011;72049;51.766;6.846;2023-10-08T06:02:22;5.75;;;2.20;;
82409;SDS011;72049;51.766;6.846;2023-10-08T06:05:08;5.15;;;2.33;;
82409;SDS011;72049;51.766;6.846;2023-10-08T06:07:37;7.45;;;2.38;;
82409;SDS011;72049;51.766;6.846;2023-10-08T06:10:16;4.50;;;2.35;;
82409;SDS011;72049;51.766;6.846;2023-10-08T06:15:50;4.53;;;1.65;;
82409;SDS011;72049;51.766;6.846;2023-10-08T06:18:22;6.22;;;1.98;;
82409;SDS011;72049;51.766;6.846;2023-10-08T06:20:54;4.18;;;1.45;;
82409;SDS011;72049;51.766;6.846;2023-10-08T06:23:20;4.43;;;1.83;;
82409;SDS011;72049;51.766;6.846;2023-10-08T06:25:49;3.47;;;1.75;;
82409;SDS011;72049;51.766;6.846;2023-10-08T06:28:23;2.65;;;1.30;;
82409;SDS011;72049;51.766;6.846;2023-10-08T06:30:55;7.78;;;1.27;;
82409;SDS011;72049;51.766;6.846;2023-10-08T06:33:22;2.55;;;0.75;;
82409;SDS011;72049;51.766;6.846;2023-10-08T06:35:47;4.43;;;1.30;;
82409;SDS011;72049;51.766;6.846;2023-10-08T06:38:27;3.17;;;1.00;;
82409;SDS011;72049;51.766;6.846;2023-10-08T06:40:54;5.35;;;1.10;;
82409;SDS011;72049;51.766;6.846;2023-10-08T06:43:19;6.53;;;1.23;;
82409;SDS011;72049;51.766;6.846;2023-10-08T06:45:50;4.43;;;1.30;;
82409;SDS011;72049;51.766;6.846;2023-10-08T06:48:19;4.50;;;1.73;;
82409;SDS011;72049;51.766;6.846;2023-10-08T06:50:48;2.75;;;0.88;;
82409;SDS011;72049;51.766;6.846;2023-10-08T06:53:13;3.47;;;1.23;;
82409;SDS011;72049;51.766;6.846;2023-10-08T06:55:44;2.70;;;1.00;;
82409;SDS011;72049;51.766;6.846;2023-10-08T06:58:10;2.97;;;1.15;;
82409;SDS011;72049;51.766;6.846;2023-10-08T07:00:39;2.38;;;0.90;;
82409;SDS011;72049;51.766;6.846;2023-10-08T07:03:06;2.85;;;1.00;;
82409;SDS011;72049;51.766;6.846;2023-10-08T07:05:40;2.15;;;0.95;;
82409;SDS011;72049;51.766;6.846;2023-10-08T07:08:09;1.98;;;0.98;;
82409;SDS011;72049;51.766;6.846;2023-10-08T07:10:38;2.20;;;1.20;;
82409;SDS011;72049;51.766;6.846;2023-10-08T07:13:03;1.70;;;0.82;;
82409;SDS011;72049;51.766;6.846;2023-10-08T07:15:30;3.17;;;1.00;;
82409;SDS011;72049;51.766;6.846;2023-10-08T07:17:56;2.67;;;1.00;;
82409;SDS011;72049;51.766;6.846;2023-10-08T07:20:21;1.63;;;0.80;;
82409;SDS011;72049;51.766;6.846;2023-10-08T07:22:47;1.92;;;0.80;;
82409;SDS011;72049;51.766;6.846;2023-10-08T07:25:22;1.67;;;1.00;;
82409;SDS011;72049;51.766;6.846;2023-10-08T07:27:47;2.15;;;0.80;;
82409;SDS011;72049;51.766;6.846;2023-10-08T07:30:13;1.95;;;0.90;;
82409;SDS011;72049;51.766;6.846;2023-10-08T07:32:38;1.42;;;0.63;;
82409;SDS011;72049;51.766;6.846;2023-10-08T07:35:04;1.30;;;0.60;;
82409;SDS011;72049;51.766;6.846;2023-10-08T07:37:42;1.35;;;0.50;;
82409;SDS011;72049;51.766;6.846;2023-10-08T07:40:08;1.25;;;0.40;;
82409;SDS011;72049;51.766;6.846;2023-10-08T07:42:36;2.85;;;0.52;;
82409;SDS011;72049;51.766;6.846;2023-10-08T07:45:02;2.93;;;0.50;;
82409;SDS011;72049;51.766;6.846;2023-10-08T07:47:29;2.55;;;0.60;;
82409;SDS011;72049;51.766;6.846;2023-10-08T07:49:55;1.77;;;0.57;;
82409;SDS011;72049;51.766;6.846;2023-10-08T07:52:20;1.70;;;0.47;;
82409;SDS011;72049;51.766;6.846;2023-10-08T07:54:46;0.95;;;0.57;;
82409;SDS011;72049;51.766;6.846;2023-10-08T07:57:12;0.50;;;0.40;;
82409;SDS011;72049;51.766;6.846;2023-10-08T07:59:42;0.75;;;0.28;;
82409;SDS011;72049;51.766;6.846;2023-10-08T08:02:19;1.80;;;0.50;;
82409;SDS011;72049;51.766;6.846;2023-10-08T08:04:50;3.13;;;0.68;;
82409;SDS011;72049;51.766;6.846;2023-10-08T08:07:16;1.40;;;0.60;;
82409;SDS011;72049;51.766;6.846;2023-10-08T08:09:42;1.95;;;0.45;;
82409;SDS011;72049;51.766;6.846;2023-10-08T08:12:13;2.35;;;0.70;;
82409;SDS011;72049;51.766;6.846;2023-10-08T08:14:38;1.50;;;0.70;;
82409;SDS011;72049;51.766;6.846;2023-10-08T08:17:06;1.63;;;0.65;;
82409;SDS011;72049;51.766;6.846;2023-10-08T08:19:45;1.85;;;0.47;;
82409;SDS011;72049;51.766;6.846;2023-10-08T08:22:12;1.42;;;0.52;;
82409;SDS011;72049;51.766;6.846;2023-10-08T08:52:08;1.15;;;0.80;;
82409;SDS011;72049;51.766;6.846;2023-10-08T09:16:28;1.50;;;0.93;;
82409;SDS011;72049;51.766;6.846;2023-10-08T09:22:07;0.70;;;0.45;;
82409;SDS011;72049;51.766;6.846;2023-10-08T09:24:33;0.38;;;0.32;;
82409;SDS011;72049;51.766;6.846;2023-10-08T09:27:06;0.60;;;0.20;;
82409;SDS011;72049;51.766;6.846;2023-10-08T09:29:34;1.95;;;0.40;;
82409;SDS011;72049;51.766;6.846;2023-10-08T09:32:04;0.68;;;0.35;;
82409;SDS011;72049;51.766;6.846;2023-10-08T09:34:31;0.50;;;0.38;;
82409;SDS011;72049;51.766;6.846;2023-10-08T09:36:57;3.22;;;0.50;;
82409;SDS011;72049;51.766;6.846;2023-10-08T09:39:23;1.05;;;0.40;;
82409;SDS011;72049;51.766;6.846;2023-10-08T09:41:55;1.30;;;0.65;;
82409;SDS011;72049;51.766;6.846;2023-10-08T09:44:21;0.50;;;0.30;;
82409;SDS011;72049;51.766;6.846;2023-10-08T09:46:48;0.88;;;0.50;;
82409;SDS011;72049;51.766;6.846;2023-10-08T09:49:17;1.02;;;0.60;;
82409;SDS011;72049;51.766;6.846;2023-10-08T09:51:46;2.67;;;0.50;;
82409;SDS011;72049;51.766;6.846;2023-10-08T09:54:15;0.98;;;0.45;;
82409;SDS011;72049;51.766;6.846;2023-10-08T09:56:42;0.82;;;0.50;;
82409;SDS011;72049;51.766;6.846;2023-10-08T09:59:09;0.80;;;0.40;;
82409;SDS011;72049;51.766;6.846;2023-10-08T10:01:37;0.70;;;0.60;;
82409;SDS011;72049;51.766;6.846;2023-10-08T10:04:08;0.75;;;0.50;;
82409;SDS011;72049;51.766;6.846;2023-10-08T10:06:34;0.75;;;0.28;;
82409;SDS011;72049;51.766;6.846;2023-10-08T10:09:01;1.15;;;0.40;;
82409;SDS011;72049;51.766;6.846;2023-10-08T10:11:28;0.60;;;0.52;;
82409;SDS011;72049;51.766;6.846;2023-10-08T10:13:57;0.57;;;0.43;;
82409;SDS011;72049;51.766;6.846;2023-10-08T10:16:25;0.57;;;0.50;;
82409;SDS011;72049;51.766;6.846;2023-10-08T10:18:54;1.95;;;0.57;;
82409;SDS011;72049;51.766;6.846;2023-10-08T10:21:25;1.10;;;0.70;;
82409;SDS011;72049;51.766;6.846;2023-10-08T10:23:52;2.92;;;0.70;;
82409;SDS011;72049;51.766;6.846;2023-10-08T10:31:32;3.17;;;0.80;;
82409;SDS011;72049;51.766;6.846;2023-10-08T10:34:04;1.00;;;0.73;;
82409;SDS011;72049;51.766;6.846;2023-10-08T10:36:29;1.70;;;0.50;;
82409;SDS011;72049;51.766;6.846;2023-10-08T10:38:56;1.35;;;1.00;;
82409;SDS011;72049;51.766;6.846;2023-10-08T10:41:25;0.47;;;0.35;;
82409;SDS011;72049;51.766;6.846;2023-10-08T10:43:52;1.42;;;0.50;;
82409;SDS011;72049;51.766;6.846;2023-10-08T10:46:18;0.75;;;0.45;;
82409;SDS011;72049;51.766;6.846;2023-10-08T10:48:56;1.88;;;0.40;;
82409;SDS011;72049;51.766;6.846;2023-10-08T10:51:41;0.98;;;0.52;;
82409;SDS011;72049;51.766;6.846;2023-10-08T10:54:06;1.17;;;0.55;;
82409;SDS011;72049;51.766;6.846;2023-10-08T10:56:35;1.90;;;0.40;;
82409;SDS011;72049;51.766;6.846;2023-10-08T10:59:10;1.63;;;0.63;;
82409;SDS011;72049;51.766;6.846;2023-10-08T11:01:49;3.63;;;0.40;;
82409;SDS011;72049;51.766;6.846;2023-10-08T11:04:20;2.08;;;1.00;;
82409;SDS011;72049;51.766;6.846;2023-10-08T11:06:54;0.65;;;0.38;;
82409;SDS011;72049;51.766;6.846;2023-10-08T11:09:25;0.82;;;0.55;;
82409;SDS011;72049;51.766;6.846;2023-10-08T11:12:04;4.28;;;0.82;;
82409;SDS011;72049;51.766;6.846;2023-10-08T11:14:42;2.35;;;0.60;;
82409;SDS011;72049;51.766;6.846;2023-10-08T11:17:14;2.35;;;0.70;;
82409;SDS011;72049;51.766;6.846;2023-10-08T11:19:41;1.77;;;0.47;;
82409;SDS011;72049;51.766;6.846;2023-10-08T11:22:08;1.27;;;0.50;;
82409;SDS011;72049;51.766;6.846;2023-10-08T11:24:41;1.13;;;0.50;;
82409;SDS011;72049;51.766;6.846;2023-10-08T11:27:18;0.93;;;0.70;;
82409;SDS011;72049;51.766;6.846;2023-10-08T11:29:54;2.22;;;0.85;;
82409;SDS011;72049;51.766;6.846;2023-10-08T11:32:23;3.53;;;1.20;;
82409;SDS011;72049;51.766;6.846;2023-10-08T11:37:48;1.45;;;1.05;;
82409;SDS011;72049;51.766;6.846;2023-10-08T11:43:16;3.28;;;1.52;;
82409;SDS011;72049;51.766;6.846;2023-10-08T11:45:59;1.52;;;0.82;;
82409;SDS011;72049;51.766;6.846;2023-10-08T11:48:30;2.22;;;1.23;;
82409;SDS011;72049;51.766;6.846;2023-10-08T11:51:06;1.92;;;1.00;;
82409;SDS011;72049;51.766;6.846;2023-10-08T11:56:42;2.67;;;1.10;;
82409;SDS011;72049;51.766;6.846;2023-10-08T11:59:29;2.75;;;1.17;;
82409;SDS011;72049;51.766;6.846;2023-10-08T12:02:12;1.38;;;0.98;;
82409;SDS011;72049;51.766;6.846;2023-10-08T12:04:42;3.08;;;1.10;;
82409;SDS011;72049;51.766;6.846;2023-10-08T12:07:10;3.45;;;0.88;;
82409;SDS011;72049;51.766;6.846;2023-10-08T12:09:44;1.58;;;0.98;;
82409;SDS011;72049;51.766;6.846;2023-10-08T12:12:13;2.03;;;1.30;;
82409;SDS011;72049;51.766;6.846;2023-10-08T12:14:48;2.50;;;0.95;;
82409;SDS011;72049;51.766;6.846;2023-10-08T12:17:14;2.90;;;1.00;;
82409;SDS011;72049;51.766;6.846;2023-10-08T12:19:42;2.53;;;1.05;;
82409;SDS011;72049;51.766;6.846;2023-10-08T12:22:08;3.20;;;0.82;;
82409;SDS011;72049;51.766;6.846;2023-10-08T12:24:33;1.80;;;0.73;;
82409;SDS011;72049;51.766;6.846;2023-10-08T12:26:59;2.00;;;0.57;;
82409;SDS011;72049;51.766;6.846;2023-10-08T12:29:24;2.83;;;1.00;;
82409;SDS011;72049;51.766;6.846;2023-10-08T12:31:59;1.95;;;0.90;;
82409;SDS011;72049;51.766;6.846;2023-10-08T12:34:28;2.67;;;0.70;;
82409;SDS011;72049;51.766;6.846;2023-10-08T12:40:28;3.72;;;1.20;;
82409;SDS011;72049;51.766;6.846;2023-10-08T12:45:37;1.88;;;1.05;;
82409;SDS011;72049;51.766;6.846;2023-10-08T12:51:03;1.48;;;0.77;;
82409;SDS011;72049;51.766;6.846;2023-10-08T12:53:39;2.03;;;0.70;;
82409;SDS011;72049;51.766;6.846;2023-10-08T12:56:13;0.55;;;0.50;;
82409;SDS011;72049;51.766;6.846;2023-10-08T12:58:43;2.67;;;0.90;;
82409;SDS011;72049;51.766;6.846;2023-10-08T13:04:34;3.03;;;1.33;;
82409;SDS011;72049;51.766;6.846;2023-10-08T13:10:15;0.85;;;0.50;;
82409;SDS011;72049;51.766;6.846;2023-10-08T13:12:41;1.67;;;0.98;;
82409;SDS011;72049;51.766;6.846;2023-10-08T13:15:13;1.63;;;0.85;;
82409;SDS011;72049;51.766;6.846;2023-10-08T13:17:38;1.50;;;0.65;;
82409;SDS011;72049;51.766;6.846;2023-10-08T13:23:14;3.72;;;0.40;;
82409;SDS011;72049;51.766;6.846;2023-10-08T13:26:12;1.90;;;0.47;;
82409;SDS011;72049;51.766;6.846;2023-10-08T13:28:43;2.58;;;0.73;;
82409;SDS011;72049;51.766;6.846;2023-10-08T13:31:09;1.45;;;0.70;;
82409;SDS011;72049;51.766;6.846;2023-10-08T13:33:38;1.20;;;0.75;;
82409;SDS011;72049;51.766;6.846;2023-10-08T13:36:06;1.08;;;0.50;;
82409;SDS011;72049;51.766;6.846;2023-10-08T13:38:35;1.67;;;0.70;;
82409;SDS011;72049;51.766;6.846;2023-10-08T13:41:01;0.95;;;0.50;;
82409;SDS011;72049;51.766;6.846;2023-10-08T13:43:45;1.05;;;0.43;;
82409;SDS011;72049;51.766;6.846;2023-10-08T13:46:11;2.47;;;0.90;;
82409;SDS011;72049;51.766;6.846;2023-10-08T13:48:40;1.65;;;0.65;;
82409;SDS011;72049;51.766;6.846;2023-10-08T13:51:08;0.98;;;0.50;;
82409;SDS011;72049;51.766;6.846;2023-10-08T13:53:42;1.65;;;0.55;;
82409;SDS011;72049;51.766;6.846;2023-10-08T13:56:10;1.85;;;0.63;;
82409;SDS011;72049;51.766;6.846;2023-10-08T13:58:37;1.35;;;0.60;;
82409;SDS011;72049;51.766;6.846;2023-10-08T14:01:06;0.75;;;0.50;;
82409;SDS011;72049;51.766;6.846;2023-10-08T14:03:46;1.05;;;0.50;;
82409;SDS011;72049;51.766;6.846;2023-10-08T14:06:12;1.00;;;0.57;;
82409;SDS011;72049;51.766;6.846;2023-10-08T14:08:41;1.85;;;0.50;;
82409;SDS011;72049;51.766;6.846;2023-10-08T14:11:10;1.10;;;0.60;;
82409;SDS011;72049;51.766;6.846;2023-10-08T14:13:38;1.92;;;0.50;;
82409;SDS011;72049;51.766;6.846;2023-10-08T14:16:07;1.58;;;0.70;;
82409;SDS011;72049;51.766;6.846;2023-10-08T14:18:36;1.95;;;0.40;;
82409;SDS011;72049;51.766;6.846;2023-10-08T14:21:06;1.73;;;0.70;;
82409;SDS011;72049;51.766;6.846;2023-10-08T14:23:38;4.28;;;0.98;;
82409;SDS011;72049;51.766;6.846;2023-10-08T14:26:06;2.30;;;0.63;;
82409;SDS011;72049;51.766;6.846;2023-10-08T14:28:35;5.80;;;0.93;;
82409;SDS011;72049;51.766;6.846;2023-10-08T14:31:18;1.98;;;0.50;;
82409;SDS011;72049;51.766;6.846;2023-10-08T14:33:47;2.33;;;0.60;;
82409;SDS011;72049;51.766;6.846;2023-10-08T14:39:14;0.75;;;0.50;;
82409;SDS011;72049;51.766;6.846;2023-10-08T14:41:58;2.42;;;0.50;;
82409;SDS011;72049;51.766;6.846;2023-10-08T14:44:42;2.80;;;0.70;;
82409;SDS011;72049;51.766;6.846;2023-10-08T14:47:07;1.10;;;0.50;;
82409;SDS011;72049;51.766;6.846;2023-10-08T14:49:33;1.83;;;0.70;;
82409;SDS011;72049;51.766;6.846;2023-10-08T14:51:59;3.10;;;0.63;;
82409;SDS011;72049;51.766;6.846;2023-10-08T14:54:24;1.67;;;0.55;;
82409;SDS011;72049;51.766;6.846;2023-10-08T14:56:50;3.73;;;0.60;;
82409;SDS011;72049;51.766;6.846;2023-10-08T14:59:15;3.70;;;0.80;;
82409;SDS011;72049;51.766;6.846;2023-10-08T15:01:43;3.03;;;0.60;;
82409;SDS011;72049;51.766;6.846;2023-10-08T15:04:09;1.08;;;0.52;;
82409;SDS011;72049;51.766;6.846;2023-10-08T15:06:36;2.00;;;0.68;;
82409;SDS011;72049;51.766;6.846;2023-10-08T15:09:01;2.67;;;0.60;;
82409;SDS011;72049;51.766;6.846;2023-10-08T15:11:27;1.13;;;0.50;;
82409;SDS011;72049;51.766;6.846;2023-10-08T15:13:55;1.85;;;0.50;;
82409;SDS011;72049;51.766;6.846;2023-10-08T15:16:20;2.13;;;0.70;;
82409;SDS011;72049;51.766;6.846;2023-10-08T15:18:49;2.35;;;0.90;;
82409;SDS011;72049;51.766;6.846;2023-10-08T15:21:16;1.80;;;0.55;;
82409;SDS011;72049;51.766;6.846;2023-10-08T15:23:43;1.33;;;0.70;;
82409;SDS011;72049;51.766;6.846;2023-10-08T15:26:08;2.65;;;0.55;;
82409;SDS011;72049;51.766;6.846;2023-10-08T15:28:34;2.47;;;0.40;;
82409;SDS011;72049;51.766;6.846;2023-10-08T15:30:59;1.63;;;0.63;;
82409;SDS011;72049;51.766;6.846;2023-10-08T15:33:24;1.23;;;0.50;;
82409;SDS011;72049;51.766;6.846;2023-10-08T15:35:53;1.05;;;0.43;;
82409;SDS011;72049;51.766;6.846;2023-10-08T15:38:18;1.57;;;0.70;;
82409;SDS011;72049;51.766;6.846;2023-10-08T15:40:44;1.37;;;0.40;;
82409;SDS011;72049;51.766;6.846;2023-10-08T15:43:09;3.53;;;0.70;;
82409;SDS011;72049;51.766;6.846;2023-10-08T15:45:34;1.67;;;0.50;;
82409;SDS011;72049;51.766;6.846;2023-10-08T15:48:02;2.67;;;0.50;;
82409;SDS011;72049;51.766;6.846;2023-10-08T15:50:27;1.15;;;0.80;;
82409;SDS011;72049;51.766;6.846;2023-10-08T15:52:57;0.88;;;0.60;;
82409;SDS011;72049;51.766;6.846;2023-10-08T15:55:23;1.20;;;0.60;;
82409;SDS011;72049;51.766;6.846;2023-10-08T15:57:48;1.80;;;0.57;;
82409;SDS011;72049;51.766;6.846;2023-10-08T16:00:13;1.88;;;0.98;;
82409;SDS011;72049;51.766;6.846;2023-10-08T16:02:39;2.15;;;0.70;;
82409;SDS011;72049;51.766;6.846;2023-10-08T16:05:05;2.47;;;0.60;;
82409;SDS011;72049;51.766;6.846;2023-10-08T16:07:32;0.93;;;0.60;;
82409;SDS011;72049;51.766;6.846;2023-10-08T16:09:58;1.75;;;0.70;;
82409;SDS011;72049;51.766;6.846;2023-10-08T16:12:23;1.77;;;0.70;;
82409;SDS011;72049;51.766;6.846;2023-10-08T16:14:48;1.33;;;0.60;;
82409;SDS011;72049;51.766;6.846;2023-10-08T16:17:14;1.15;;;0.55;;
82409;SDS011;72049;51.766;6.846;2023-10-08T16:19:41;2.63;;;0.60;;
82409;SDS011;72049;51.766;6.846;2023-10-08T16:22:06;2.03;;;0.43;;
82409;SDS011;72049;51.766;6.846;2023-10-08T16:24:32;2.20;;;0.57;;
82409;SDS011;72049;51.766;6.846;2023-10-08T16:26:57;0.73;;;0.60;;
82409;SDS011;72049;51.766;6.846;2023-10-08T16:29:22;3.00;;;0.60;;
82409;SDS011;72049;51.766;6.846;2023-10-08T16:31:48;0.52;;;0.30;;
82409;SDS011;72049;51.766;6.846;2023-10-08T16:34:14;1.07;;;0.50;;
82409;SDS011;72049;51.766;6.846;2023-10-08T16:36:41;1.05;;;0.57;;
82409;SDS011;72049;51.766;6.846;2023-10-08T16:39:07;1.50;;;0.40;;
82409;SDS011;72049;51.766;6.846;2023-10-08T16:41:42;0.47;;;0.40;;